Time;durP1;ratioP1;P1;durP2;ratioP2;P2;SDS_P1;SDS_P2;PMS_P1;PMS_P2;Temp;Humidity;BMP_temperature;BMP_pressure;BME280_temperature;BME280_humidity;BME280_pressure;Samples;Min_cycle;Max_cycle;Signal;HPM_P1;HPM_P2
2024/01/05 00:01:27;;;;;;;1999.90;999.90;;;7.80;99.90;;;;;;5027002;28;20037;-73
2024/01/05 00:03:53;;;;;;;1999.90;999.90;;;7.80;99.90;;;;;;5032880;28;20036;-72
2024/01/05 00:06:19;;;;;;;1999.90;999.90;;;7.80;99.90;;;;;;5019661;28;20417;-72
2024/01/05 00:08:45;;;;;;;1999.90;999.90;;;7.80;99.90;;;;;;5030339;28;20029;-73
2024/01/05 00:11:18;;;;;;;1999.90;999.90;;;7.80;99.90;;;;;;5032175;28;20432;-72
2024/01/05 00:13:44;;;;;;;1999.90;999.90;;;7.80;99.90;;;;;;5031620;28;20025;-73
2024/01/05 00:16:17;;;;;;;1999.90;999.90;;;7.80;99.90;;;;;;5032404;28;20033;-72
2024/01/05 00:18:43;;;;;;;1999.90;999.90;;;7.80;99.90;;;;;;5030621;28;20061;-72
2024/01/05 00:21:08;;;;;;;1999.90;999.90;;;7.90;99.90;;;;;;5021724;28;20114;-72
2024/01/05 00:23:34;;;;;;;1999.90;999.90;;;7.80;99.90;;;;;;5028254;28;20033;-72
2024/01/05 00:26:03;;;;;;;1999.90;999.90;;;7.80;99.90;;;;;;5031364;28;20137;-72
2024/01/05 00:28:29;;;;;;;1999.90;999.90;;;7.90;99.90;;;;;;5031933;28;20025;-72
2024/01/05 00:30:54;;;;;;;1999.90;999.90;;;7.90;99.90;;;;;;5029466;28;20481;-72
2024/01/05 00:33:20;;;;;;;1999.90;999.90;;;8.00;99.90;;;;;;5029465;28;20214;-73
2024/01/05 00:35:46;;;;;;;1999.90;999.90;;;8.00;99.90;;;;;;5027241;28;20059;-72
2024/01/05 00:38:11;;;;;;;1999.90;999.90;;;8.00;99.90;;;;;;5021064;28;20038;-72
2024/01/05 00:40:37;;;;;;;1999.90;999.90;;;8.10;99.90;;;;;;5030696;28;20025;-72
2024/01/05 00:43:03;;;;;;;1999.90;999.90;;;8.10;99.90;;;;;;5031651;28;20041;-72
2024/01/05 00:45:28;;;;;;;1999.90;999.90;;;8.10;99.90;;;;;;5031914;28;20036;-72
2024/01/05 00:47:54;;;;;;;1999.90;999.90;;;8.10;99.90;;;;;;5030502;28;20105;-72
2024/01/05 00:50:20;;;;;;;1999.90;999.90;;;8.10;99.90;;;;;;5030863;28;20332;-72
2024/01/05 00:52:45;;;;;;;1999.90;999.90;;;8.10;99.90;;;;;;5028801;28;20079;-72
2024/01/05 00:55:11;;;;;;;1999.90;999.90;;;8.20;99.90;;;;;;5030376;28;20081;-72
2024/01/05 00:57:37;;;;;;;1999.90;999.90;;;8.20;99.90;;;;;;5031584;28;20025;-72
2024/01/05 01:00:04;;;;;;;1999.90;999.90;;;8.20;99.90;;;;;;5032934;28;20459;-73
2024/01/05 01:02:29;;;;;;;1999.90;999.90;;;8.20;99.90;;;;;;5030252;28;20037;-72
2024/01/05 01:04:55;;;;;;;1999.90;999.90;;;8.20;99.90;;;;;;5030449;28;20416;-72
2024/01/05 01:07:21;;;;;;;1999.90;999.90;;;8.30;99.90;;;;;;5040859;28;20032;-72
2024/01/05 01:09:46;;;;;;;1999.90;999.90;;;8.30;99.90;;;;;;5031556;28;20033;-73
2024/01/05 01:12:12;;;;;;;1999.90;999.90;;;8.20;99.90;;;;;;5030132;28;20109;-73
2024/01/05 01:14:38;;;;;;;1999.90;999.90;;;8.30;99.90;;;;;;5015448;28;20021;-73
2024/01/05 01:17:04;;;;;;;1999.90;999.90;;;8.30;99.90;;;;;;5022953;28;20328;-72
2024/01/05 01:19:29;;;;;;;1999.90;999.90;;;8.30;99.90;;;;;;5025866;28;20837;-72
2024/01/05 01:21:55;;;;;;;1999.90;999.90;;;8.30;99.90;;;;;;5026502;28;20079;-72
2024/01/05 01:24:21;;;;;;;1999.90;999.90;;;8.30;99.90;;;;;;5025500;28;20065;-72
2024/01/05 01:26:46;;;;;;;1999.90;999.90;;;8.30;99.90;;;;;;5030510;28;20032;-72
2024/01/05 01:29:12;;;;;;;1999.90;999.90;;;8.30;99.90;;;;;;5026130;28;20030;-72
2024/01/05 01:31:38;;;;;;;1999.90;999.90;;;8.30;99.90;;;;;;5037962;28;20053;-72
2024/01/05 01:34:04;;;;;;;1999.90;999.90;;;8.30;99.90;;;;;;5025015;28;20610;-72
2024/01/05 01:36:30;;;;;;;1999.90;999.90;;;8.30;99.90;;;;;;5020775;28;20053;-72
2024/01/05 01:38:56;;;;;;;1999.90;999.90;;;8.30;99.90;;;;;;5027365;28;20069;-71
2024/01/05 01:41:22;;;;;;;1999.90;999.90;;;8.30;99.90;;;;;;5026903;28;20038;-72
2024/01/05 01:43:48;;;;;;;1999.90;999.90;;;8.20;99.90;;;;;;5025895;28;20352;-72
2024/01/05 01:46:14;;;;;;;1999.90;999.90;;;8.20;99.90;;;;;;5021223;28;20041;-72
2024/01/05 01:48:42;;;;;;;1999.90;999.90;;;8.10;99.90;;;;;;5018040;28;20108;-72
2024/01/05 01:51:08;;;;;;;1999.90;999.90;;;8.10;99.90;;;;;;5027905;28;20021;-72
2024/01/05 01:53:34;;;;;;;1999.90;999.90;;;8.10;99.90;;;;;;5027318;28;20348;-72
2024/01/05 01:56:00;;;;;;;1999.90;999.90;;;8.10;99.90;;;;;;5033644;28;20033;-72
2024/01/05 01:58:26;;;;;;;1999.90;999.90;;;8.10;99.90;;;;;;5035727;28;20117;-72
2024/01/05 02:00:52;;;;;;;1999.90;999.90;;;8.20;99.90;;;;;;5035827;28;20567;-72
2024/01/05 02:03:18;;;;;;;1999.90;999.90;;;8.20;99.90;;;;;;5030170;28;20108;-72
2024/01/05 02:05:46;;;;;;;1999.90;999.90;;;8.20;99.90;;;;;;5027457;28;20116;-72
2024/01/05 02:08:11;;;;;;;1999.90;999.90;;;8.30;99.90;;;;;;5030255;28;20028;-72
2024/01/05 02:10:38;;;;;;;1999.90;999.90;;;8.30;99.90;;;;;;5027225;28;20029;-72
2024/01/05 02:13:04;;;;;;;1999.90;999.90;;;8.30;99.90;;;;;;5033825;28;20119;-71
2024/01/05 02:15:29;;;;;;;1999.90;999.90;;;8.40;99.90;;;;;;5035819;28;20511;-72
2024/01/05 02:17:55;;;;;;;1999.90;999.90;;;8.40;99.90;;;;;;5038661;28;20021;-73
2024/01/05 02:20:21;;;;;;;1999.90;999.90;;;8.40;99.90;;;;;;5041794;28;20775;-73
2024/01/05 02:23:00;;;;;;;1999.90;999.90;;;8.40;99.90;;;;;;5031369;28;20064;-72
2024/01/05 02:25:25;;;;;;;1999.90;999.90;;;8.50;99.90;;;;;;5024898;28;20030;-72
2024/01/05 02:27:51;;;;;;;1999.90;999.90;;;8.50;99.90;;;;;;5032381;28;20413;-72
2024/01/05 02:30:20;;;;;;;1999.90;999.90;;;8.50;99.90;;;;;;5030609;28;20112;-72
2024/01/05 02:32:46;;;;;;;1999.90;999.90;;;8.50;99.90;;;;;;5027631;28;20033;-72
2024/01/05 02:35:11;;;;;;;1999.90;999.90;;;8.50;99.90;;;;;;5029581;28;20034;-73
2024/01/05 02:37:37;;;;;;;1999.90;999.90;;;8.50;99.90;;;;;;5028699;28;20100;-72
2024/01/05 02:40:03;;;;;;;1999.90;999.90;;;8.50;99.90;;;;;;5025967;28;20046;-72
2024/01/05 02:42:29;;;;;;;1999.90;999.90;;;8.50;99.90;;;;;;5028959;28;20439;-72
2024/01/05 02:44:54;;;;;;;1999.90;999.90;;;8.50;99.90;;;;;;5034582;28;20029;-73
2024/01/05 02:47:20;;;;;;;1999.90;999.90;;;8.50;99.90;;;;;;5034678;28;20025;-72
2024/01/05 02:49:45;;;;;;;1999.90;999.90;;;8.60;99.90;;;;;;5032764;28;20018;-73
2024/01/05 02:52:11;;;;;;;1999.90;999.90;;;8.60;99.90;;;;;;5034700;28;20132;-72
2024/01/05 02:54:37;;;;;;;1999.90;999.90;;;8.60;99.90;;;;;;5021170;28;20029;-72
2024/01/05 02:57:03;;;;;;;1999.90;999.90;;;8.60;99.90;;;;;;5047326;28;20025;-72
2024/01/05 02:59:29;;;;;;;1999.90;999.90;;;8.60;99.90;;;;;;5034587;28;20083;-72
2024/01/05 03:01:55;;;;;;;1999.90;999.90;;;8.60;99.90;;;;;;5033851;28;20029;-72
2024/01/05 03:04:20;;;;;;;1999.90;999.90;;;8.60;99.90;;;;;;5034740;28;20018;-72
2024/01/05 03:06:46;;;;;;;1999.90;999.90;;;8.70;99.90;;;;;;5032143;28;20121;-72
2024/01/05 03:09:11;;;;;;;1999.90;999.90;;;8.70;99.90;;;;;;5045292;28;20029;-72
2024/01/05 03:11:37;;;;;;;1999.90;999.90;;;8.70;99.90;;;;;;5033669;28;20018;-72
2024/01/05 03:14:03;;;;;;;1999.90;999.90;;;8.80;99.90;;;;;;5032559;28;20412;-72
2024/01/05 03:16:29;;;;;;;1999.90;999.90;;;8.80;99.90;;;;;;5034111;28;20029;-73
2024/01/05 03:18:54;;;;;;;1999.90;999.90;;;8.80;99.90;;;;;;5027352;28;20021;-72
2024/01/05 03:21:20;;;;;;;1999.90;999.90;;;8.80;99.90;;;;;;5028163;28;20038;-72
2024/01/05 03:23:46;;;;;;;1999.90;999.90;;;8.80;99.90;;;;;;5027530;28;20018;-72
2024/01/05 03:26:11;;;;;;;1999.90;999.90;;;8.80;99.90;;;;;;5033927;28;20033;-72
2024/01/05 03:28:40;;;;;;;1999.90;999.90;;;8.80;99.90;;;;;;5033355;28;20025;-72
2024/01/05 03:31:13;;;;;;;1999.90;999.90;;;8.80;99.90;;;;;;5030348;28;20025;-72
2024/01/05 03:33:44;;;;;;;1999.90;999.90;;;8.80;99.90;;;;;;5032481;28;20025;-73
2024/01/05 03:36:10;;;;;;;1999.90;999.90;;;8.80;99.90;;;;;;5034721;28;20068;-72
2024/01/05 03:38:36;;;;;;;1999.90;999.90;;;8.80;99.90;;;;;;5031108;28;20156;-72
2024/01/05 03:41:02;;;;;;;1999.90;999.90;;;8.80;99.90;;;;;;5031230;28;20105;-72
2024/01/05 03:43:27;;;;;;;1999.90;999.90;;;8.80;99.90;;;;;;5032239;28;20382;-73
2024/01/05 03:45:53;;;;;;;1999.90;999.90;;;8.80;99.90;;;;;;5027338;28;20038;-73
2024/01/05 03:48:19;;;;;;;1999.90;999.90;;;8.80;99.90;;;;;;5019751;28;20026;-72
2024/01/05 03:50:44;;;;;;;1999.90;999.90;;;8.80;99.90;;;;;;5030415;28;20025;-72
2024/01/05 03:53:10;;;;;;;1999.90;999.90;;;8.80;99.90;;;;;;5024856;28;20103;-72
2024/01/05 03:55:36;;;;;;;1999.90;999.90;;;8.80;99.90;;;;;;5028357;28;20073;-72
2024/01/05 03:58:01;;;;;;;1999.90;999.90;;;8.80;99.90;;;;;;5022331;28;20030;-72
2024/01/05 04:00:27;;;;;;;1999.90;999.90;;;8.80;99.90;;;;;;5023459;28;20520;-72
2024/01/05 04:02:53;;;;;;;1999.90;999.90;;;8.80;99.90;;;;;;5024468;28;20052;-73
2024/01/05 04:05:18;;;;;;;1999.90;999.90;;;8.80;99.90;;;;;;5019260;28;20348;-73
2024/01/05 04:07:44;;;;;;;1999.90;999.90;;;8.80;99.90;;;;;;5023721;28;20029;-73
2024/01/05 04:10:10;;;;;;;1999.90;999.90;;;8.80;99.90;;;;;;5024632;28;20032;-72
2024/01/05 04:12:35;;;;;;;1999.90;999.90;;;8.80;99.90;;;;;;5026176;28;20037;-73
2024/01/05 04:15:01;;;;;;;1999.90;999.90;;;8.80;99.90;;;;;;5020532;28;20025;-73
2024/01/05 04:17:27;;;;;;;1999.90;999.90;;;8.90;99.90;;;;;;5020990;28;20121;-72
2024/01/05 04:19:52;;;;;;;1999.90;999.90;;;8.80;99.90;;;;;;5024571;28;20029;-72
2024/01/05 04:22:18;;;;;;;1999.90;999.90;;;8.80;99.90;;;;;;5021149;28;20041;-72
2024/01/05 04:24:44;;;;;;;1999.90;999.90;;;8.80;99.90;;;;;;5021641;28;20095;-72
2024/01/05 04:27:09;;;;;;;1999.90;999.90;;;8.80;99.90;;;;;;5019916;28;20081;-73
2024/01/05 04:29:35;;;;;;;1999.90;999.90;;;8.90;99.90;;;;;;5023782;28;20029;-73
2024/01/05 04:32:01;;;;;;;1999.90;999.90;;;8.90;99.90;;;;;;5017808;28;20022;-73
2024/01/05 04:34:26;;;;;;;1999.90;999.90;;;8.90;99.90;;;;;;5025314;28;20030;-73
2024/01/05 04:36:52;;;;;;;1999.90;999.90;;;8.90;99.90;;;;;;5020077;28;20119;-72
2024/01/05 04:39:18;;;;;;;1999.90;999.90;;;8.90;99.90;;;;;;5022726;28;20094;-72
2024/01/05 04:41:43;;;;;;;1999.90;999.90;;;8.90;99.90;;;;;;5031106;28;20052;-72
2024/01/05 04:44:09;;;;;;;1999.90;999.90;;;8.90;99.90;;;;;;5022282;28;20377;-73
2024/01/05 04:46:35;;;;;;;1999.90;999.90;;;8.90;99.90;;;;;;5032058;28;20103;-72
2024/01/05 04:49:00;;;;;;;1999.90;999.90;;;8.80;99.90;;;;;;5035839;28;20017;-72
2024/01/05 04:51:26;;;;;;;1999.90;999.90;;;8.80;99.90;;;;;;5025695;28;20649;-72
2024/01/05 04:53:52;;;;;;;1999.90;999.90;;;8.80;99.90;;;;;;5032612;28;20009;-73
2024/01/05 04:56:17;;;;;;;1999.90;999.90;;;8.90;99.90;;;;;;5024774;28;20033;-73
2024/01/05 04:58:43;;;;;;;1999.90;999.90;;;8.80;99.90;;;;;;5030646;28;20028;-72
2024/01/05 05:01:09;;;;;;;1999.90;999.90;;;8.80;99.90;;;;;;5025091;28;20030;-73
2024/01/05 05:03:35;;;;;;;1999.90;999.90;;;8.90;99.90;;;;;;5037572;28;20028;-72
2024/01/05 05:06:01;;;;;;;1999.90;999.90;;;8.80;99.90;;;;;;5039661;28;20297;-72
2024/01/05 05:08:27;;;;;;;1999.90;999.90;;;8.80;99.90;;;;;;5029514;28;20078;-72
2024/01/05 05:10:53;;;;;;;1999.90;999.90;;;8.80;99.90;;;;;;5031811;28;20021;-72
2024/01/05 05:13:18;;;;;;;1999.90;999.90;;;8.80;99.90;;;;;;5021473;28;20105;-72
2024/01/05 05:15:44;;;;;;;1999.90;999.90;;;8.80;99.90;;;;;;5026146;28;20058;-72
2024/01/05 05:18:10;;;;;;;1999.90;999.90;;;8.80;99.90;;;;;;5024732;28;20064;-71
2024/01/05 05:20:35;;;;;;;1999.90;999.90;;;8.80;99.90;;;;;;5028703;28;20050;-72
2024/01/05 05:23:01;;;;;;;1999.90;999.90;;;8.80;99.90;;;;;;5030436;28;20075;-72
2024/01/05 05:25:27;;;;;;;1999.90;999.90;;;8.80;99.90;;;;;;5029639;28;20468;-72
2024/01/05 05:27:52;;;;;;;1999.90;999.90;;;8.80;99.90;;;;;;5027501;28;20026;-72
2024/01/05 05:30:18;;;;;;;1999.90;999.90;;;8.80;99.90;;;;;;5028228;28;20028;-72
2024/01/05 05:32:44;;;;;;;1999.90;999.90;;;8.80;99.90;;;;;;5030083;28;20064;-72
2024/01/05 05:35:09;;;;;;;1999.90;999.90;;;8.80;99.90;;;;;;5027593;28;20026;-73
2024/01/05 05:37:35;;;;;;;1999.90;999.90;;;8.80;99.90;;;;;;5020518;28;20037;-72
2024/01/05 05:40:01;;;;;;;1999.90;999.90;;;8.80;99.90;;;;;;5026289;28;20036;-73
2024/01/05 05:42:27;;;;;;;1999.90;999.90;;;8.80;99.90;;;;;;5025558;28;20045;-73
2024/01/05 05:44:53;;;;;;;1999.90;999.90;;;8.80;99.90;;;;;;5034954;28;20044;-72
2024/01/05 05:47:18;;;;;;;1999.90;999.90;;;8.70;99.90;;;;;;5028416;28;20117;-73
2024/01/05 05:49:44;;;;;;;1999.90;999.90;;;8.70;99.90;;;;;;5035412;28;20025;-72
2024/01/05 05:52:10;;;;;;;1999.90;999.90;;;8.70;99.90;;;;;;5033774;28;20051;-72
2024/01/05 05:54:35;;;;;;;1999.90;999.90;;;8.70;99.90;;;;;;5036118;28;20022;-72
2024/01/05 05:57:01;;;;;;;1999.90;999.90;;;8.70;99.90;;;;;;5021632;28;20036;-73
2024/01/05 05:59:27;;;;;;;1999.90;999.90;;;8.70;99.90;;;;;;5035004;28;20155;-72
2024/01/05 06:01:52;;;;;;;1999.90;999.90;;;8.70;99.90;;;;;;5034707;28;20029;-72
2024/01/05 06:04:18;;;;;;;1999.90;999.90;;;8.70;99.90;;;;;;5034435;28;20112;-73
2024/01/05 06:06:44;;;;;;;1999.90;999.90;;;8.70;99.90;;;;;;5022340;28;20471;-72
2024/01/05 06:09:12;;;;;;;1999.90;999.90;;;8.70;99.90;;;;;;5040726;28;20076;-72
2024/01/05 06:11:38;;;;;;;1999.90;999.90;;;8.70;99.90;;;;;;5027842;28;20105;-72
2024/01/05 06:14:04;;;;;;;1999.90;999.90;;;8.70;99.90;;;;;;5034178;28;20156;-73
2024/01/05 06:16:30;;;;;;;1999.90;999.90;;;8.70;99.90;;;;;;5035551;28;20345;-72
2024/01/05 06:18:55;;;;;;;1999.90;999.90;;;8.60;99.90;;;;;;5034805;28;20518;-73
2024/01/05 06:21:21;;;;;;;1999.90;999.90;;;8.60;99.90;;;;;;5034384;28;20107;-73
2024/01/05 06:23:47;;;;;;;1999.90;999.90;;;8.60;99.90;;;;;;5031420;28;20037;-73
2024/01/05 06:26:12;;;;;;;1999.90;999.90;;;8.60;99.90;;;;;;5033502;28;20043;-72
2024/01/05 06:28:38;;;;;;;1999.90;999.90;;;8.60;99.90;;;;;;5034817;28;20049;-72
2024/01/05 06:31:05;;;;;;;1999.90;999.90;;;8.50;99.90;;;;;;5034386;28;20029;-72
2024/01/05 06:33:31;;;;;;;1999.90;999.90;;;8.50;99.90;;;;;;5034491;28;20100;-72
2024/01/05 06:35:57;;;;;;;1999.90;999.90;;;8.40;99.90;;;;;;5032850;28;20026;-72
2024/01/05 06:38:22;;;;;;;1999.90;999.90;;;8.40;99.90;;;;;;5029805;28;20112;-72
2024/01/05 06:40:48;;;;;;;1999.90;999.90;;;8.40;99.90;;;;;;5027503;28;20504;-71
2024/01/05 06:43:14;;;;;;;1999.90;999.90;;;8.20;99.90;;;;;;5036167;28;20045;-73
2024/01/05 06:45:39;;;;;;;1999.90;999.90;;;8.20;99.90;;;;;;5031953;28;20144;-72
2024/01/05 06:48:06;;;;;;;1999.90;999.90;;;8.20;99.90;;;;;;5019676;28;20120;-72
2024/01/05 06:50:31;;;;;;;1999.90;999.90;;;8.20;99.90;;;;;;5032079;28;20094;-71
2024/01/05 06:52:57;;;;;;;1999.90;999.90;;;8.20;99.90;;;;;;5037710;28;20427;-72
2024/01/05 06:55:22;;;;;;;1999.90;999.90;;;8.20;99.90;;;;;;5030020;28;20451;-72
2024/01/05 06:57:48;;;;;;;1999.90;999.90;;;8.20;99.90;;;;;;5028013;28;20052;-72
2024/01/05 07:00:14;;;;;;;1999.90;999.90;;;8.20;99.90;;;;;;5027276;28;20029;-72
2024/01/05 07:02:40;;;;;;;1999.90;999.90;;;8.10;99.90;;;;;;5036787;28;20052;-72
2024/01/05 07:05:07;;;;;;;1999.90;999.90;;;8.10;99.90;;;;;;5025791;28;20416;-72
2024/01/05 07:07:32;;;;;;;1999.90;999.90;;;8.10;99.90;;;;;;5033814;28;20255;-71
2024/01/05 07:09:58;;;;;;;1999.90;999.90;;;8.10;99.90;;;;;;5028769;28;20752;-72
2024/01/05 07:12:24;;;;;;;1999.90;999.90;;;8.00;99.90;;;;;;5039746;28;20036;-72
2024/01/05 07:14:50;;;;;;;1999.90;999.90;;;8.00;99.90;;;;;;5025791;28;20034;-72
2024/01/05 07:17:16;;;;;;;1999.90;999.90;;;8.00;99.90;;;;;;5027772;28;20052;-72
2024/01/05 07:19:41;;;;;;;1999.90;999.90;;;8.00;99.90;;;;;;5032003;28;20025;-71
2024/01/05 07:22:07;;;;;;;1999.90;999.90;;;8.00;99.90;;;;;;5031070;28;20026;-72
2024/01/05 07:24:36;;;;;;;1999.90;999.90;;;8.00;99.90;;;;;;5027993;28;20100;-71
2024/01/05 07:27:02;;;;;;;1999.90;999.90;;;7.90;99.90;;;;;;5037510;28;20440;-72
2024/01/05 07:29:27;;;;;;;1999.90;999.90;;;7.90;99.90;;;;;;5028557;28;20033;-71
2024/01/05 07:31:53;;;;;;;1999.90;999.90;;;8.00;99.90;;;;;;5019441;28;20029;-72
2024/01/05 07:34:18;;;;;;;1999.90;999.90;;;7.90;99.90;;;;;;5025670;28;20108;-72
2024/01/05 07:36:44;;;;;;;1999.90;999.90;;;7.90;99.90;;;;;;5014508;28;20373;-71
2024/01/05 07:39:11;;;;;;;1999.90;999.90;;;8.00;99.90;;;;;;5014129;28;20088;-72
2024/01/05 07:41:37;;;;;;;;;;;8.00;99.90;;;;;;5028006;28;20448;-72
2024/01/05 07:44:02;;;;;;;1999.90;999.90;;;7.90;99.90;;;;;;5032245;28;19905;-72
2024/01/05 07:46:28;;;;;;;1999.90;999.90;;;7.70;99.90;;;;;;5033314;28;20042;-72
2024/01/05 07:48:54;;;;;;;1999.90;999.90;;;7.60;99.90;;;;;;5033427;28;20047;-72
2024/01/05 07:51:20;;;;;;;1999.90;999.90;;;7.50;99.90;;;;;;5033394;28;20420;-71
2024/01/05 07:53:48;;;;;;;1999.90;999.90;;;7.50;99.90;;;;;;5032792;28;20070;-71
2024/01/05 07:56:16;;;;;;;1999.90;999.90;;;7.50;99.90;;;;;;5033547;28;20040;-71
2024/01/05 07:58:42;;;;;;;1999.90;999.90;;;7.50;99.90;;;;;;5032408;28;20025;-72
2024/01/05 08:01:17;;;;;;;1999.90;999.90;;;7.50;99.90;;;;;;5032160;28;20436;-71
2024/01/05 08:03:46;;;;;;;1999.90;999.90;;;7.40;99.90;;;;;;5031729;28;20270;-71
2024/01/05 08:06:19;;;;;;;1999.90;999.90;;;7.40;99.90;;;;;;5025417;28;20030;-71
2024/01/05 08:08:46;;;;;;;1999.90;999.90;;;7.40;99.90;;;;;;5027905;28;20376;-71
2024/01/05 08:11:15;;;;;;;1999.90;999.90;;;7.40;99.90;;;;;;5033206;28;20029;-71
2024/01/05 08:13:44;;;;;;;1999.90;999.90;;;7.40;99.90;;;;;;5032716;28;20036;-71
2024/01/05 08:16:10;;;;;;;1999.90;999.90;;;7.40;99.90;;;;;;5033241;28;20049;-71
2024/01/05 08:18:40;;;;;;;1999.90;999.90;;;7.40;99.90;;;;;;5032879;28;20163;-72
2024/01/05 08:21:05;;;;;;;1999.90;999.90;;;7.30;99.90;;;;;;5031690;28;20032;-71
2024/01/05 08:23:34;;;;;;;1999.90;999.90;;;7.40;99.90;;;;;;5025327;28;20034;-72
2024/01/05 08:26:00;;;;;;;1999.90;999.90;;;7.40;99.90;;;;;;5029847;28;20030;-71
2024/01/05 08:28:26;;;;;;;1999.90;999.90;;;7.30;99.90;;;;;;5021819;28;20214;-71
2024/01/05 08:30:52;;;;;;;1999.90;999.90;;;7.30;99.90;;;;;;5032194;28;20033;-71
2024/01/05 08:33:18;;;;;;;1999.90;999.90;;;7.30;99.90;;;;;;5034208;28;20443;-73
2024/01/05 08:35:44;;;;;;;1999.90;999.90;;;7.30;99.90;;;;;;5020299;28;20045;-72
2024/01/05 08:38:10;;;;;;;1999.90;999.90;;;7.20;99.90;;;;;;5013566;28;20030;-72
2024/01/05 08:40:36;;;;;;;1999.90;999.90;;;7.20;99.90;;;;;;5033213;28;20040;-73
2024/01/05 08:43:02;;;;;;;1999.90;999.90;;;7.20;99.90;;;;;;5031857;28;20051;-74
2024/01/05 08:45:29;;;;;;;1999.90;999.90;;;7.30;99.90;;;;;;5027166;28;20021;-72
2024/01/05 08:47:55;;;;;;;;;;;7.20;99.90;;;;;;5026321;28;20025;-72
2024/01/05 08:50:20;;;;;;;1999.90;999.90;;;7.20;99.90;;;;;;5033912;28;20304;-72
2024/01/05 08:52:46;;;;;;;1999.90;999.90;;;7.20;99.90;;;;;;5026939;28;20336;-73
2024/01/05 08:55:16;;;;;;;1999.90;999.90;;;7.20;99.90;;;;;;5017690;28;20034;-73
2024/01/05 08:57:43;;;;;;;1999.90;999.90;;;7.20;99.90;;;;;;5023645;28;20079;-72
2024/01/05 09:00:09;;;;;;;1999.90;999.90;;;7.20;99.90;;;;;;5029915;28;20026;-72
2024/01/05 09:02:39;;;;;;;1999.90;999.90;;;7.20;99.90;;;;;;5030391;28;20318;-72
2024/01/05 09:05:05;;;;;;;1999.90;999.90;;;7.20;99.90;;;;;;5027080;28;20057;-73
2024/01/05 09:07:34;;;;;;;1999.90;999.90;;;7.20;99.90;;;;;;5029131;28;20426;-73
2024/01/05 09:10:00;;;;;;;1999.90;999.90;;;7.20;99.90;;;;;;5033709;28;20048;-73
2024/01/05 09:12:27;;;;;;;1999.90;999.90;;;7.20;99.90;;;;;;5034224;28;20368;-72
2024/01/05 09:14:53;;;;;;;1999.90;999.90;;;7.20;99.90;;;;;;5032114;28;20383;-73
2024/01/05 09:17:18;;;;;;;1999.90;999.90;;;7.20;99.90;;;;;;5032713;28;20021;-73
2024/01/05 09:19:44;;;;;;;1999.90;999.90;;;7.20;99.90;;;;;;5031548;28;20033;-73
2024/01/05 09:22:11;;;;;;;1999.90;999.90;;;7.20;99.90;;;;;;5029580;28;20034;-73
2024/01/05 09:24:37;;;;;;;1999.90;999.90;;;7.20;99.90;;;;;;5026815;28;20038;-73
2024/01/05 09:27:04;;;;;;;1999.90;999.90;;;7.10;99.90;;;;;;5033428;28;20113;-73
2024/01/05 09:29:31;;;;;;;1999.90;999.90;;;7.10;99.90;;;;;;5022054;28;20111;-73
2024/01/05 09:31:57;;;;;;;1999.90;999.90;;;7.10;99.90;;;;;;5036770;28;20363;-73
2024/01/05 09:34:23;;;;;;;1999.90;999.90;;;7.10;99.90;;;;;;5035304;28;20024;-74
2024/01/05 09:36:50;;;;;;;1999.90;999.90;;;7.10;99.90;;;;;;5026203;28;20034;-73
2024/01/05 09:39:16;;;;;;;1999.90;999.90;;;7.10;99.90;;;;;;5034949;28;20024;-72
2024/01/05 09:41:45;;;;;;;1999.90;999.90;;;7.10;99.90;;;;;;5030891;28;20455;-72
2024/01/05 09:44:12;;;;;;;1999.90;999.90;;;7.10;99.90;;;;;;5031035;28;20064;-72
2024/01/05 09:46:41;;;;;;;1999.90;999.90;;;7.10;99.90;;;;;;5033744;28;20018;-73
2024/01/05 09:49:08;;;;;;;1999.90;999.90;;;7.20;99.90;;;;;;5031288;28;20464;-73
2024/01/05 09:51:34;;;;;;;1999.90;999.90;;;7.10;99.90;;;;;;5026547;28;20065;-72
2024/01/05 09:54:01;;;;;;;1999.90;999.90;;;7.20;99.90;;;;;;5043410;28;20013;-73
2024/01/05 09:56:27;;;;;;;1999.90;999.90;;;7.10;99.90;;;;;;5033554;28;20053;-73
2024/01/05 09:58:54;;;;;;;1999.90;999.90;;;7.10;99.90;;;;;;5028687;28;20421;-73
2024/01/05 10:01:32;;;;;;;1999.90;999.90;;;7.20;99.90;;;;;;5035906;28;20030;-73
2024/01/05 10:04:01;;;;;;;1999.90;999.90;;;7.20;99.90;;;;;;5039187;28;20370;-73
2024/01/05 10:06:28;;;;;;;1999.90;999.90;;;7.20;99.90;;;;;;5020179;28;20037;-73
2024/01/05 10:08:59;;;;;;;1999.90;999.90;;;7.20;99.90;;;;;;5027166;28;20032;-73
2024/01/05 10:11:45;;;;;;;1999.90;999.90;;;7.20;99.90;;;;;;5024546;28;20045;-74
2024/01/05 10:14:15;;;;;;;1999.90;999.90;;;7.10;99.90;;;;;;5028958;28;20013;-72
2024/01/05 10:16:41;;;;;;;1999.90;999.90;;;7.10;99.90;;;;;;5041875;28;20438;-72
2024/01/05 10:19:11;;;;;;;1999.90;999.90;;;7.10;99.90;;;;;;5029336;28;20029;-72
2024/01/05 10:21:38;;;;;;;1999.90;999.90;;;7.10;99.90;;;;;;5026227;28;20397;-73
2024/01/05 10:24:13;;;;;;;1999.90;999.90;;;7.10;99.90;;;;;;5031427;28;20034;-72
2024/01/05 10:26:38;;;;;;;1999.90;999.90;;;7.00;99.90;;;;;;5023443;28;20056;-72
2024/01/05 10:29:16;;;;;;;1999.90;999.90;;;7.10;99.90;;;;;;5035071;28;20049;-72
2024/01/05 10:31:42;;;;;;;1999.90;999.90;;;7.10;99.90;;;;;;5032196;28;20025;-72
2024/01/05 10:34:08;;;;;;;1999.90;999.90;;;7.10;99.90;;;;;;5033421;28;20049;-73
2024/01/05 10:36:34;;;;;;;1999.90;999.90;;;7.10;99.90;;;;;;5037729;28;20540;-72
2024/01/05 10:39:00;;;;;;;1999.90;999.90;;;7.10;99.90;;;;;;5029816;28;20119;-72
2024/01/05 10:41:28;;;;;;;1999.90;999.90;;;7.00;99.90;;;;;;5033431;28;20083;-72
2024/01/05 10:43:55;;;;;;;1999.90;999.90;;;7.10;99.90;;;;;;5039772;28;20025;-72
2024/01/05 10:46:22;;;;;;;1999.90;999.90;;;7.00;99.90;;;;;;5032798;28;20030;-72
2024/01/05 10:48:48;;;;;;;1999.90;999.90;;;7.10;99.90;;;;;;5028678;28;20029;-72
2024/01/05 10:51:20;;;;;;;1999.90;999.90;;;7.00;99.90;;;;;;5036807;28;20029;-72
2024/01/05 10:53:50;;;;;;;1999.90;999.90;;;7.00;99.90;;;;;;5036848;28;20716;-72
2024/01/05 10:56:18;;;;;;;1999.90;999.90;;;7.00;99.90;;;;;;5030590;28;20025;-72
2024/01/05 10:58:44;;;;;;;1999.90;999.90;;;7.00;99.90;;;;;;5024393;28;20404;-73
2024/01/05 11:01:13;;;;;;;1999.90;999.90;;;7.10;99.90;;;;;;5035655;28;20076;-72
2024/01/05 11:03:43;;;;;;;1999.90;999.90;;;7.10;99.90;;;;;;5042022;28;20079;-72
2024/01/05 11:06:10;;;;;;;1999.90;999.90;;;7.10;99.90;;;;;;5036435;28;20391;-71
2024/01/05 11:08:56;;;;;;;1999.90;999.90;;;7.10;99.90;;;;;;5031095;28;20028;-71
2024/01/05 11:12:02;;;;;;;1999.90;999.90;;;7.10;99.90;;;;;;5031649;28;20041;-71
2024/01/05 11:14:56;;;;;;;1999.90;999.90;;;7.10;99.90;;;;;;5038941;28;20128;-72
2024/01/05 11:17:40;;;;;;;1999.90;999.90;;;7.10;99.90;;;;;;5029208;28;20109;-72
2024/01/05 11:20:42;;;;;;;1999.90;999.90;;;7.20;99.90;;;;;;5037902;28;20120;-71
2024/01/05 11:23:09;;;;;;;1999.90;999.90;;;7.20;99.90;;;;;;5036604;28;20378;-71
2024/01/05 11:25:35;;;;;;;1999.90;999.90;;;7.20;99.90;;;;;;5037958;28;20065;-71
2024/01/05 11:28:02;;;;;;;1999.90;999.90;;;7.20;99.90;;;;;;5037916;28;20053;-72
2024/01/05 11:30:41;;;;;;;1999.90;999.90;;;7.20;99.90;;;;;;5039010;28;20029;-72
2024/01/05 11:33:08;;;;;;;1999.90;999.90;;;7.20;99.90;;;;;;5035339;28;20057;-72
2024/01/05 11:35:43;;;;;;;1999.90;999.90;;;7.30;99.90;;;;;;5024805;28;20335;-73
2024/01/05 11:38:29;;;;;;;1999.90;999.90;;;7.30;99.90;;;;;;5027230;28;20029;-71
2024/01/05 11:40:55;;;;;;;1999.90;999.90;;;7.20;99.90;;;;;;5031571;28;20025;-72
2024/01/05 11:43:30;;;;;;;1999.90;999.90;;;7.20;99.90;;;;;;5032501;28;20045;-72
2024/01/05 11:45:55;;;;;;;1999.90;999.90;;;7.30;99.90;;;;;;5030447;28;20069;-72
2024/01/05 11:48:33;;;;;;;1999.90;999.90;;;7.30;99.90;;;;;;5026917;28;20088;-72
2024/01/05 11:51:00;;;;;;;1999.90;999.90;;;7.20;99.90;;;;;;5031668;28;20058;-73
2024/01/05 11:53:28;;;;;;;1999.90;999.90;;;7.30;99.90;;;;;;5024679;28;20036;-73
2024/01/05 11:55:56;;;;;;;1999.90;999.90;;;7.20;99.90;;;;;;5018935;28;20038;-74
2024/01/05 11:58:35;;;;;;;1999.90;999.90;;;7.20;99.90;;;;;;5031096;28;20025;-73
2024/01/05 12:01:03;;;;;;;1999.90;999.90;;;7.30;99.90;;;;;;5023580;28;20021;-73
2024/01/05 12:03:30;;;;;;;1999.90;999.90;;;7.30;99.90;;;;;;5029415;28;20100;-73
2024/01/05 12:05:56;;;;;;;;;;;7.30;99.90;;;;;;5035516;28;20108;-73
2024/01/05 12:08:23;;;;;;;1999.90;999.90;;;7.20;99.90;;;;;;5030379;28;19912;-73